sensor_id;sensor_type;location;lat;lon;timestamp;temperature;humidity
67557;DHT22;54387;53.526;49.300;2022-10-16T00:00:43;4.40;66.60
67557;DHT22;54387;53.526;49.300;2022-10-16T00:03:15;4.40;66.70
67557;DHT22;54387;53.526;49.300;2022-10-16T00:05:46;4.40;66.70
67557;DHT22;54387;53.526;49.300;2022-10-16T00:08:18;4.40;66.80
67557;DHT22;54387;53.526;49.300;2022-10-16T00:10:49;4.40;66.90
67557;DHT22;54387;53.526;49.300;2022-10-16T00:13:20;4.40;67.00
67557;DHT22;54387;53.526;49.300;2022-10-16T00:15:55;4.40;67.10
67557;DHT22;54387;53.526;49.300;2022-10-16T00:18:28;4.40;67.20
67557;DHT22;54387;53.526;49.300;2022-10-16T00:23:39;4.40;67.30
67557;DHT22;54387;53.526;49.300;2022-10-16T00:26:15;4.40;67.30
67557;DHT22;54387;53.526;49.300;2022-10-16T00:28:50;4.40;67.40
67557;DHT22;54387;53.526;49.300;2022-10-16T00:31:23;4.30;67.40
67557;DHT22;54387;53.526;49.300;2022-10-16T00:33:54;4.30;67.40
67557;DHT22;54387;53.526;49.300;2022-10-16T00:36:26;4.30;67.50
67557;DHT22;54387;53.526;49.300;2022-10-16T00:38:58;4.30;67.50
67557;DHT22;54387;53.526;49.300;2022-10-16T00:41:33;4.30;67.60
67557;DHT22;54387;53.526;49.300;2022-10-16T00:44:44;4.30;67.60
67557;DHT22;54387;53.526;49.300;2022-10-16T00:52:46;4.30;67.80
67557;DHT22;54387;53.526;49.300;2022-10-16T00:55:18;4.30;67.80
67557;DHT22;54387;53.526;49.300;2022-10-16T00:57:51;4.30;67.90
67557;DHT22;54387;53.526;49.300;2022-10-16T01:00:25;4.30;68.00
67557;DHT22;54387;53.526;49.300;2022-10-16T01:02:59;4.30;68.00
67557;DHT22;54387;53.526;49.300;2022-10-16T01:05:39;4.30;68.00
67557;DHT22;54387;53.526;49.300;2022-10-16T01:08:19;4.20;68.00
67557;DHT22;54387;53.526;49.300;2022-10-16T01:11:02;4.20;68.10
67557;DHT22;54387;53.526;49.300;2022-10-16T01:13:41;4.20;68.10
67557;DHT22;54387;53.526;49.300;2022-10-16T01:16:25;4.20;68.00
67557;DHT22;54387;53.526;49.300;2022-10-16T01:21:42;4.20;68.10
67557;DHT22;54387;53.526;49.300;2022-10-16T01:24:31;4.20;68.10
67557;DHT22;54387;53.526;49.300;2022-10-16T01:27:30;4.20;68.30
67557;DHT22;54387;53.526;49.300;2022-10-16T01:30:23;4.20;68.30
67557;DHT22;54387;53.526;49.300;2022-10-16T01:33:10;4.20;68.30
67557;DHT22;54387;53.526;49.300;2022-10-16T01:35:54;4.20;68.40
67557;DHT22;54387;53.526;49.300;2022-10-16T01:38:36;4.20;68.40
67557;DHT22;54387;53.526;49.300;2022-10-16T01:41:22;4.20;68.40
67557;DHT22;54387;53.526;49.300;2022-10-16T01:44:05;4.10;68.40
67557;DHT22;54387;53.526;49.300;2022-10-16T01:46:40;4.10;68.40
67557;DHT22;54387;53.526;49.300;2022-10-16T01:49:12;4.10;68.50
67557;DHT22;54387;53.526;49.300;2022-10-16T01:51:47;4.10;68.40
67557;DHT22;54387;53.526;49.300;2022-10-16T01:54:20;4.10;68.50
67557;DHT22;54387;53.526;49.300;2022-10-16T01:56:54;4.10;68.50
67557;DHT22;54387;53.526;49.300;2022-10-16T01:59:28;4.00;68.50
67557;DHT22;54387;53.526;49.300;2022-10-16T02:02:07;4.10;68.70
67557;DHT22;54387;53.526;49.300;2022-10-16T02:04:45;4.00;68.70
67557;DHT22;54387;53.526;49.300;2022-10-16T02:07:17;4.00;68.80
67557;DHT22;54387;53.526;49.300;2022-10-16T02:09:49;4.00;68.80
67557;DHT22;54387;53.526;49.300;2022-10-16T02:12:27;4.00;68.90
67557;DHT22;54387;53.526;49.300;2022-10-16T02:14:59;4.00;68.90
67557;DHT22;54387;53.526;49.300;2022-10-16T02:17:31;4.00;69.00
67557;DHT22;54387;53.526;49.300;2022-10-16T02:20:04;3.90;69.00
67557;DHT22;54387;53.526;49.300;2022-10-16T02:22:44;4.00;69.10
67557;DHT22;54387;53.526;49.300;2022-10-16T02:25:34;3.90;69.10
67557;DHT22;54387;53.526;49.300;2022-10-16T02:28:17;3.90;69.20
67557;DHT22;54387;53.526;49.300;2022-10-16T02:30:56;3.90;69.20
67557;DHT22;54387;53.526;49.300;2022-10-16T02:33:30;3.90;69.80
67557;DHT22;54387;53.526;49.300;2022-10-16T02:36:03;3.90;69.30
67557;DHT22;54387;53.526;49.300;2022-10-16T02:38:35;3.90;69.30
67557;DHT22;54387;53.526;49.300;2022-10-16T02:41:07;3.90;69.40
67557;DHT22;54387;53.526;49.300;2022-10-16T02:43:39;3.80;69.40
67557;DHT22;54387;53.526;49.300;2022-10-16T02:46:10;3.80;69.40
67557;DHT22;54387;53.526;49.300;2022-10-16T02:48:42;3.80;69.40
67557;DHT22;54387;53.526;49.300;2022-10-16T02:51:14;3.80;69.40
67557;DHT22;54387;53.526;49.300;2022-10-16T02:53:45;3.80;69.50
67557;DHT22;54387;53.526;49.300;2022-10-16T02:56:17;3.80;69.50
67557;DHT22;54387;53.526;49.300;2022-10-16T02:58:48;3.80;69.50
67557;DHT22;54387;53.526;49.300;2022-10-16T03:01:19;3.80;69.60
67557;DHT22;54387;53.526;49.300;2022-10-16T03:03:51;3.70;69.60
67557;DHT22;54387;53.526;49.300;2022-10-16T03:06:22;3.70;69.60
67557;DHT22;54387;53.526;49.300;2022-10-16T03:08:54;3.70;69.70
67557;DHT22;54387;53.526;49.300;2022-10-16T03:11:26;3.70;69.70
67557;DHT22;54387;53.526;49.300;2022-10-16T03:13:57;3.70;69.70
67557;DHT22;54387;53.526;49.300;2022-10-16T03:16:29;3.70;69.80
67557;DHT22;54387;53.526;49.300;2022-10-16T03:19:01;3.70;69.80
67557;DHT22;54387;53.526;49.300;2022-10-16T03:21:32;3.70;69.90
67557;DHT22;54387;53.526;49.300;2022-10-16T03:24:04;3.70;69.90
67557;DHT22;54387;53.526;49.300;2022-10-16T03:26:36;3.70;70.00
67557;DHT22;54387;53.526;49.300;2022-10-16T03:29:07;3.70;70.50
67557;DHT22;54387;53.526;49.300;2022-10-16T03:31:39;3.70;70.00
67557;DHT22;54387;53.526;49.300;2022-10-16T03:34:10;3.70;70.10
67557;DHT22;54387;53.526;49.300;2022-10-16T03:36:42;3.70;70.20
67557;DHT22;54387;53.526;49.300;2022-10-16T03:39:13;3.80;70.20
67557;DHT22;54387;53.526;49.300;2022-10-16T03:41:45;3.70;70.20
67557;DHT22;54387;53.526;49.300;2022-10-16T03:44:17;3.80;70.30
67557;DHT22;54387;53.526;49.300;2022-10-16T03:46:49;3.80;70.30
67557;DHT22;54387;53.526;49.300;2022-10-16T03:49:20;3.80;70.40
67557;DHT22;54387;53.526;49.300;2022-10-16T03:51:51;3.80;70.40
67557;DHT22;54387;53.526;49.300;2022-10-16T03:54:23;3.90;70.40
67557;DHT22;54387;53.526;49.300;2022-10-16T03:56:54;3.90;70.40
67557;DHT22;54387;53.526;49.300;2022-10-16T03:59:26;3.90;70.50
67557;DHT22;54387;53.526;49.300;2022-10-16T04:01:57;3.90;70.50
67557;DHT22;54387;53.526;49.300;2022-10-16T04:04:29;4.00;70.60
67557;DHT22;54387;53.526;49.300;2022-10-16T04:07:00;4.00;70.60
67557;DHT22;54387;53.526;49.300;2022-10-16T04:09:32;4.00;70.60
67557;DHT22;54387;53.526;49.300;2022-10-16T04:12:03;4.10;70.70
67557;DHT22;54387;53.526;49.300;2022-10-16T04:14:35;4.10;70.70
67557;DHT22;54387;53.526;49.300;2022-10-16T04:17:06;4.20;70.70
67557;DHT22;54387;53.526;49.300;2022-10-16T04:19:38;4.20;70.60
67557;DHT22;54387;53.526;49.300;2022-10-16T04:22:09;4.30;70.60
67557;DHT22;54387;53.526;49.300;2022-10-16T04:24:41;4.40;70.50
67557;DHT22;54387;53.526;49.300;2022-10-16T04:27:12;4.40;70.40
67557;DHT22;54387;53.526;49.300;2022-10-16T04:29:44;4.50;70.30
67557;DHT22;54387;53.526;49.300;2022-10-16T04:32:15;4.60;70.10
67557;DHT22;54387;53.526;49.300;2022-10-16T04:34:47;4.70;70.00
67557;DHT22;54387;53.526;49.300;2022-10-16T04:37:18;4.80;69.90
67557;DHT22;54387;53.526;49.300;2022-10-16T04:39:50;4.90;69.70
67557;DHT22;54387;53.526;49.300;2022-10-16T04:42:21;5.00;69.60
67557;DHT22;54387;53.526;49.300;2022-10-16T04:44:53;5.00;69.40
67557;DHT22;54387;53.526;49.300;2022-10-16T04:47:24;5.10;69.30
67557;DHT22;54387;53.526;49.300;2022-10-16T04:49:56;5.20;69.10
67557;DHT22;54387;53.526;49.300;2022-10-16T04:52:28;5.20;69.00
67557;DHT22;54387;53.526;49.300;2022-10-16T04:55:00;5.30;68.80
67557;DHT22;54387;53.526;49.300;2022-10-16T04:57:33;5.40;68.70
67557;DHT22;54387;53.526;49.300;2022-10-16T05:00:05;5.50;68.60
67557;DHT22;54387;53.526;49.300;2022-10-16T05:02:37;5.50;68.40
67557;DHT22;54387;53.526;49.300;2022-10-16T05:05:09;5.60;68.20
67557;DHT22;54387;53.526;49.300;2022-10-16T05:07:40;5.70;67.90
67557;DHT22;54387;53.526;49.300;2022-10-16T05:10:12;5.80;67.70
67557;DHT22;54387;53.526;49.300;2022-10-16T05:12:43;5.90;67.50
67557;DHT22;54387;53.526;49.300;2022-10-16T05:15:15;5.90;67.20
67557;DHT22;54387;53.526;49.300;2022-10-16T05:17:46;6.00;67.10
67557;DHT22;54387;53.526;49.300;2022-10-16T05:20:19;6.10;66.90
67557;DHT22;54387;53.526;49.300;2022-10-16T05:22:50;6.20;66.70
67557;DHT22;54387;53.526;49.300;2022-10-16T05:25:22;6.20;66.50
67557;DHT22;54387;53.526;49.300;2022-10-16T05:27:53;6.30;66.20
67557;DHT22;54387;53.526;49.300;2022-10-16T05:30:25;6.40;66.10
67557;DHT22;54387;53.526;49.300;2022-10-16T05:32:56;6.50;66.00
67557;DHT22;54387;53.526;49.300;2022-10-16T05:35:28;6.60;65.60
67557;DHT22;54387;53.526;49.300;2022-10-16T05:37:59;6.60;65.20
67557;DHT22;54387;53.526;49.300;2022-10-16T05:40:31;6.70;65.40
67557;DHT22;54387;53.526;49.300;2022-10-16T05:43:02;6.80;65.30
67557;DHT22;54387;53.526;49.300;2022-10-16T05:45:34;6.90;65.30
67557;DHT22;54387;53.526;49.300;2022-10-16T05:48:05;6.90;65.20
67557;DHT22;54387;53.526;49.300;2022-10-16T05:50:37;7.00;64.80
67557;DHT22;54387;53.526;49.300;2022-10-16T05:53:09;7.10;64.80
67557;DHT22;54387;53.526;49.300;2022-10-16T05:55:40;7.10;64.80
67557;DHT22;54387;53.526;49.300;2022-10-16T05:58:12;7.20;64.80
67557;DHT22;54387;53.526;49.300;2022-10-16T06:00:43;7.30;64.80
67557;DHT22;54387;53.526;49.300;2022-10-16T06:03:15;7.30;64.60
67557;DHT22;54387;53.526;49.300;2022-10-16T06:05:46;7.40;64.50
67557;DHT22;54387;53.526;49.300;2022-10-16T06:08:19;7.40;64.40
67557;DHT22;54387;53.526;49.300;2022-10-16T06:11:04;7.50;64.30
67557;DHT22;54387;53.526;49.300;2022-10-16T06:13:36;7.60;64.10
67557;DHT22;54387;53.526;49.300;2022-10-16T06:16:10;7.60;64.10
67557;DHT22;54387;53.526;49.300;2022-10-16T06:18:41;7.70;64.00
67557;DHT22;54387;53.526;49.300;2022-10-16T06:21:17;7.70;64.00
67557;DHT22;54387;53.526;49.300;2022-10-16T06:23:49;7.80;63.90
67557;DHT22;54387;53.526;49.300;2022-10-16T06:26:23;7.90;63.80
67557;DHT22;54387;53.526;49.300;2022-10-16T06:28:54;8.00;63.50
67557;DHT22;54387;53.526;49.300;2022-10-16T06:31:27;8.00;63.30
67557;DHT22;54387;53.526;49.300;2022-10-16T06:34:01;8.00;63.00
67557;DHT22;54387;53.526;49.300;2022-10-16T06:36:33;8.10;63.00
67557;DHT22;54387;53.526;49.300;2022-10-16T06:39:04;8.20;63.10
67557;DHT22;54387;53.526;49.300;2022-10-16T06:41:38;8.20;62.90
67557;DHT22;54387;53.526;49.300;2022-10-16T06:44:10;8.30;62.30
67557;DHT22;54387;53.526;49.300;2022-10-16T06:46:41;8.30;62.10
67557;DHT22;54387;53.526;49.300;2022-10-16T06:49:13;8.40;62.00
67557;DHT22;54387;53.526;49.300;2022-10-16T06:51:46;8.40;61.60
67557;DHT22;54387;53.526;49.300;2022-10-16T06:54:18;8.50;61.50
67557;DHT22;54387;53.526;49.300;2022-10-16T06:56:51;8.50;60.80
67557;DHT22;54387;53.526;49.300;2022-10-16T06:59:22;8.60;60.70
67557;DHT22;54387;53.526;49.300;2022-10-16T07:01:54;8.60;60.50
67557;DHT22;54387;53.526;49.300;2022-10-16T07:04:25;8.70;59.90
67557;DHT22;54387;53.526;49.300;2022-10-16T07:06:57;8.70;59.20
67557;DHT22;54387;53.526;49.300;2022-10-16T07:09:28;8.80;58.70
67557;DHT22;54387;53.526;49.300;2022-10-16T07:12:00;8.80;57.60
67557;DHT22;54387;53.526;49.300;2022-10-16T07:14:31;8.90;56.90
67557;DHT22;54387;53.526;49.300;2022-10-16T07:17:03;8.90;57.00
67557;DHT22;54387;53.526;49.300;2022-10-16T07:19:34;9.00;56.90
67557;DHT22;54387;53.526;49.300;2022-10-16T07:22:06;9.00;56.50
67557;DHT22;54387;53.526;49.300;2022-10-16T07:24:37;9.10;57.20
67557;DHT22;54387;53.526;49.300;2022-10-16T07:27:09;9.20;57.20
67557;DHT22;54387;53.526;49.300;2022-10-16T07:29:40;9.20;55.70
67557;DHT22;54387;53.526;49.300;2022-10-16T07:32:12;9.30;55.60
67557;DHT22;54387;53.526;49.300;2022-10-16T07:34:43;9.40;55.00
67557;DHT22;54387;53.526;49.300;2022-10-16T07:37:16;9.50;54.90
67557;DHT22;54387;53.526;49.300;2022-10-16T07:39:48;9.60;54.40
67557;DHT22;54387;53.526;49.300;2022-10-16T07:42:19;9.60;54.30
67557;DHT22;54387;53.526;49.300;2022-10-16T07:44:51;9.70;53.40
67557;DHT22;54387;53.526;49.300;2022-10-16T07:47:22;9.70;52.50
67557;DHT22;54387;53.526;49.300;2022-10-16T07:49:54;9.80;52.00
67557;DHT22;54387;53.526;49.300;2022-10-16T07:52:25;9.80;51.30
67557;DHT22;54387;53.526;49.300;2022-10-16T07:54:57;9.90;51.00
67557;DHT22;54387;53.526;49.300;2022-10-16T07:57:28;9.90;51.00
67557;DHT22;54387;53.526;49.300;2022-10-16T08:00:00;9.90;50.30
67557;DHT22;54387;53.526;49.300;2022-10-16T08:02:32;10.00;50.70
67557;DHT22;54387;53.526;49.300;2022-10-16T08:05:04;10.00;50.40
67557;DHT22;54387;53.526;49.300;2022-10-16T08:07:35;10.10;49.80
67557;DHT22;54387;53.526;49.300;2022-10-16T08:10:11;10.10;49.20
67557;DHT22;54387;53.526;49.300;2022-10-16T08:12:46;10.10;48.90
67557;DHT22;54387;53.526;49.300;2022-10-16T08:15:18;10.10;48.90
67557;DHT22;54387;53.526;49.300;2022-10-16T08:18:03;10.10;48.70
67557;DHT22;54387;53.526;49.300;2022-10-16T08:20:35;10.10;48.20
67557;DHT22;54387;53.526;49.300;2022-10-16T08:23:07;10.10;48.30
67557;DHT22;54387;53.526;49.300;2022-10-16T08:25:40;10.20;48.60
67557;DHT22;54387;53.526;49.300;2022-10-16T08:28:12;10.20;48.30
67557;DHT22;54387;53.526;49.300;2022-10-16T08:30:43;10.20;48.30
67557;DHT22;54387;53.526;49.300;2022-10-16T08:33:15;10.20;48.60
67557;DHT22;54387;53.526;49.300;2022-10-16T08:35:53;10.20;48.50
67557;DHT22;54387;53.526;49.300;2022-10-16T08:38:25;10.30;47.90
67557;DHT22;54387;53.526;49.300;2022-10-16T08:41:27;10.30;47.40
67557;DHT22;54387;53.526;49.300;2022-10-16T08:47:18;10.40;47.00
67557;DHT22;54387;53.526;49.300;2022-10-16T08:50:13;10.40;47.30
67557;DHT22;54387;53.526;49.300;2022-10-16T08:52:45;10.50;47.00
67557;DHT22;54387;53.526;49.300;2022-10-16T08:55:46;10.50;47.10
67557;DHT22;54387;53.526;49.300;2022-10-16T08:58:22;10.60;47.00
67557;DHT22;54387;53.526;49.300;2022-10-16T09:00:56;10.70;47.20
67557;DHT22;54387;53.526;49.300;2022-10-16T09:04:04;10.80;47.00
67557;DHT22;54387;53.526;49.300;2022-10-16T09:06:54;11.00;45.30
67557;DHT22;54387;53.526;49.300;2022-10-16T09:09:40;11.10;44.70
67557;DHT22;54387;53.526;49.300;2022-10-16T09:12:36;11.10;45.20
67557;DHT22;54387;53.526;49.300;2022-10-16T09:21:18;12.20;45.80
67557;DHT22;54387;53.526;49.300;2022-10-16T09:23:51;12.90;43.30
67557;DHT22;54387;53.526;49.300;2022-10-16T09:26:22;13.80;43.60
67557;DHT22;54387;53.526;49.300;2022-10-16T09:28:54;14.80;41.20
67557;DHT22;54387;53.526;49.300;2022-10-16T09:31:25;15.50;37.80
67557;DHT22;54387;53.526;49.300;2022-10-16T09:34:02;16.40;36.40
67557;DHT22;54387;53.526;49.300;2022-10-16T09:36:43;17.80;34.90
67557;DHT22;54387;53.526;49.300;2022-10-16T09:39:15;19.40;33.50
67557;DHT22;54387;53.526;49.300;2022-10-16T09:41:46;20.70;31.60
67557;DHT22;54387;53.526;49.300;2022-10-16T09:44:36;20.80;29.80
67557;DHT22;54387;53.526;49.300;2022-10-16T09:47:17;19.60;29.80
67557;DHT22;54387;53.526;49.300;2022-10-16T09:49:58;18.50;30.70
67557;DHT22;54387;53.526;49.300;2022-10-16T09:52:33;17.30;31.60
67557;DHT22;54387;53.526;49.300;2022-10-16T09:55:16;16.50;32.20
67557;DHT22;54387;53.526;49.300;2022-10-16T09:57:55;15.80;33.40
67557;DHT22;54387;53.526;49.300;2022-10-16T10:00:26;15.30;34.70
67557;DHT22;54387;53.526;49.300;2022-10-16T10:02:58;15.40;35.30
67557;DHT22;54387;53.526;49.300;2022-10-16T10:05:29;15.70;34.80
67557;DHT22;54387;53.526;49.300;2022-10-16T10:08:02;15.90;34.30
67557;DHT22;54387;53.526;49.300;2022-10-16T10:10:42;15.80;33.90
67557;DHT22;54387;53.526;49.300;2022-10-16T10:13:21;16.20;34.30
67557;DHT22;54387;53.526;49.300;2022-10-16T10:15:53;17.10;33.10
67557;DHT22;54387;53.526;49.300;2022-10-16T10:18:25;17.60;32.40
67557;DHT22;54387;53.526;49.300;2022-10-16T10:20:59;18.40;32.50
67557;DHT22;54387;53.526;49.300;2022-10-16T10:23:31;19.10;30.70
67557;DHT22;54387;53.526;49.300;2022-10-16T10:29:14;19.50;29.40
67557;DHT22;54387;53.526;49.300;2022-10-16T10:32:01;18.60;29.40
67557;DHT22;54387;53.526;49.300;2022-10-16T10:37:33;16.20;31.40
67557;DHT22;54387;53.526;49.300;2022-10-16T10:45:45;14.10;34.90
67557;DHT22;54387;53.526;49.300;2022-10-16T10:54:43;13.30;36.70
67557;DHT22;54387;53.526;49.300;2022-10-16T10:57:37;13.00;37.30
67557;DHT22;54387;53.526;49.300;2022-10-16T11:02:47;12.60;38.30
67557;DHT22;54387;53.526;49.300;2022-10-16T11:05:27;12.50;38.80
67557;DHT22;54387;53.526;49.300;2022-10-16T11:08:02;12.50;39.00
67557;DHT22;54387;53.526;49.300;2022-10-16T11:11:03;12.50;38.90
67557;DHT22;54387;53.526;49.300;2022-10-16T11:16:23;12.60;39.20
67557;DHT22;54387;53.526;49.300;2022-10-16T11:19:27;12.60;39.10
67557;DHT22;54387;53.526;49.300;2022-10-16T11:22:19;12.60;39.10
67557;DHT22;54387;53.526;49.300;2022-10-16T11:24:53;12.50;39.20
67557;DHT22;54387;53.526;49.300;2022-10-16T11:27:50;12.50;39.30
67557;DHT22;54387;53.526;49.300;2022-10-16T11:30:29;12.50;39.30
67557;DHT22;54387;53.526;49.300;2022-10-16T11:33:29;12.50;39.50
67557;DHT22;54387;53.526;49.300;2022-10-16T11:38:55;12.20;39.50
67557;DHT22;54387;53.526;49.300;2022-10-16T11:50:09;11.40;40.20
67557;DHT22;54387;53.526;49.300;2022-10-16T11:52:53;11.20;40.60
67557;DHT22;54387;53.526;49.300;2022-10-16T11:55:55;11.10;41.00
67557;DHT22;54387;53.526;49.300;2022-10-16T12:07:17;10.80;42.10
67557;DHT22;54387;53.526;49.300;2022-10-16T12:09:50;10.80;42.40
67557;DHT22;54387;53.526;49.300;2022-10-16T12:17:38;10.60;42.30
67557;DHT22;54387;53.526;49.300;2022-10-16T12:22:59;10.50;42.90
67557;DHT22;54387;53.526;49.300;2022-10-16T12:30:37;10.50;43.30
67557;DHT22;54387;53.526;49.300;2022-10-16T12:36:14;10.40;43.60
67557;DHT22;54387;53.526;49.300;2022-10-16T12:41:34;10.40;44.30
67557;DHT22;54387;53.526;49.300;2022-10-16T12:44:24;10.40;44.40
67557;DHT22;54387;53.526;49.300;2022-10-16T12:46:57;10.40;44.60
67557;DHT22;54387;53.526;49.300;2022-10-16T12:49:37;10.40;44.90
67557;DHT22;54387;53.526;49.300;2022-10-16T12:52:36;10.40;45.40
67557;DHT22;54387;53.526;49.300;2022-10-16T12:55:16;10.80;46.40
67557;DHT22;54387;53.526;49.300;2022-10-16T12:58:07;11.50;45.80
67557;DHT22;54387;53.526;49.300;2022-10-16T13:07:44;12.80;42.40
67557;DHT22;54387;53.526;49.300;2022-10-16T13:18:55;11.60;43.90
67557;DHT22;54387;53.526;49.300;2022-10-16T13:21:54;11.30;44.40
67557;DHT22;54387;53.526;49.300;2022-10-16T13:30:02;10.60;45.80
67557;DHT22;54387;53.526;49.300;2022-10-16T13:32:40;10.40;46.50
67557;DHT22;54387;53.526;49.300;2022-10-16T13:35:24;10.20;46.60
67557;DHT22;54387;53.526;49.300;2022-10-16T13:38:12;10.10;47.20
67557;DHT22;54387;53.526;49.300;2022-10-16T13:41:04;9.90;47.40
67557;DHT22;54387;53.526;49.300;2022-10-16T13:43:47;9.80;47.80
67557;DHT22;54387;53.526;49.300;2022-10-16T13:46:21;9.60;48.30
67557;DHT22;54387;53.526;49.300;2022-10-16T13:49:04;9.50;48.40
67557;DHT22;54387;53.526;49.300;2022-10-16T13:51:36;9.40;48.90
67557;DHT22;54387;53.526;49.300;2022-10-16T13:54:10;9.30;48.90
67557;DHT22;54387;53.526;49.300;2022-10-16T13:56:43;9.20;49.40
67557;DHT22;54387;53.526;49.300;2022-10-16T13:59:26;9.10;49.80
67557;DHT22;54387;53.526;49.300;2022-10-16T14:02:00;9.00;50.40
67557;DHT22;54387;53.526;49.300;2022-10-16T14:04:40;8.80;50.40
67557;DHT22;54387;53.526;49.300;2022-10-16T14:07:23;8.80;50.70
67557;DHT22;54387;53.526;49.300;2022-10-16T14:09:56;8.70;50.90
67557;DHT22;54387;53.526;49.300;2022-10-16T14:12:31;8.60;50.70
67557;DHT22;54387;53.526;49.300;2022-10-16T14:15:02;8.40;50.80
67557;DHT22;54387;53.526;49.300;2022-10-16T14:17:35;8.40;51.30
67557;DHT22;54387;53.526;49.300;2022-10-16T14:20:14;8.30;51.90
67557;DHT22;54387;53.526;49.300;2022-10-16T14:22:47;8.20;52.40
67557;DHT22;54387;53.526;49.300;2022-10-16T14:25:31;8.10;52.70
67557;DHT22;54387;53.526;49.300;2022-10-16T14:28:04;8.10;53.20
67557;DHT22;54387;53.526;49.300;2022-10-16T14:30:36;8.00;53.50
67557;DHT22;54387;53.526;49.300;2022-10-16T14:33:24;7.90;54.00
67557;DHT22;54387;53.526;49.300;2022-10-16T14:38:42;7.80;55.00
67557;DHT22;54387;53.526;49.300;2022-10-16T14:41:14;7.70;55.10
67557;DHT22;54387;53.526;49.300;2022-10-16T14:43:50;7.70;55.00
67557;DHT22;54387;53.526;49.300;2022-10-16T14:46:32;7.60;55.30
67557;DHT22;54387;53.526;49.300;2022-10-16T14:51:42;7.40;56.10
67557;DHT22;54387;53.526;49.300;2022-10-16T14:54:17;7.40;56.40
67557;DHT22;54387;53.526;49.300;2022-10-16T15:01:58;7.20;57.30
67557;DHT22;54387;53.526;49.300;2022-10-16T15:04:29;7.20;57.70
67557;DHT22;54387;53.526;49.300;2022-10-16T15:07:01;7.10;58.00
67557;DHT22;54387;53.526;49.300;2022-10-16T15:09:32;7.10;58.30
67557;DHT22;54387;53.526;49.300;2022-10-16T15:12:05;7.00;58.60
67557;DHT22;54387;53.526;49.300;2022-10-16T15:14:37;7.00;58.90
67557;DHT22;54387;53.526;49.300;2022-10-16T15:17:10;6.90;59.00
67557;DHT22;54387;53.526;49.300;2022-10-16T15:19:41;6.90;59.30
67557;DHT22;54387;53.526;49.300;2022-10-16T15:22:13;6.80;59.30
67557;DHT22;54387;53.526;49.300;2022-10-16T15:24:44;6.80;59.70
67557;DHT22;54387;53.526;49.300;2022-10-16T15:27:16;6.70;60.00
67557;DHT22;54387;53.526;49.300;2022-10-16T15:29:47;6.70;60.10
67557;DHT22;54387;53.526;49.300;2022-10-16T15:32:19;6.70;60.30
67557;DHT22;54387;53.526;49.300;2022-10-16T15:34:50;6.60;60.40
67557;DHT22;54387;53.526;49.300;2022-10-16T15:37:22;6.60;60.60
67557;DHT22;54387;53.526;49.300;2022-10-16T15:39:53;6.50;60.70
67557;DHT22;54387;53.526;49.300;2022-10-16T15:42:25;6.50;60.90
67557;DHT22;54387;53.526;49.300;2022-10-16T15:44:56;6.40;61.00
67557;DHT22;54387;53.526;49.300;2022-10-16T15:47:28;6.40;61.10
67557;DHT22;54387;53.526;49.300;2022-10-16T15:49:59;6.30;61.20
67557;DHT22;54387;53.526;49.300;2022-10-16T15:52:31;6.30;61.40
67557;DHT22;54387;53.526;49.300;2022-10-16T15:55:03;6.30;61.60
67557;DHT22;54387;53.526;49.300;2022-10-16T15:57:36;6.20;61.70
67557;DHT22;54387;53.526;49.300;2022-10-16T16:00:12;6.20;61.80
67557;DHT22;54387;53.526;49.300;2022-10-16T16:02:50;6.20;61.90
67557;DHT22;54387;53.526;49.300;2022-10-16T16:05:23;6.10;62.10
67557;DHT22;54387;53.526;49.300;2022-10-16T16:07:55;6.10;62.20
67557;DHT22;54387;53.526;49.300;2022-10-16T16:10:26;6.10;62.30
67557;DHT22;54387;53.526;49.300;2022-10-16T16:12:58;6.10;62.40
67557;DHT22;54387;53.526;49.300;2022-10-16T16:15:30;6.00;62.50
67557;DHT22;54387;53.526;49.300;2022-10-16T16:18:01;6.00;62.60
67557;DHT22;54387;53.526;49.300;2022-10-16T16:20:34;6.10;62.80
67557;DHT22;54387;53.526;49.300;2022-10-16T16:23:06;6.10;63.40
67557;DHT22;54387;53.526;49.300;2022-10-16T16:25:37;6.10;62.90
67557;DHT22;54387;53.526;49.300;2022-10-16T16:28:09;6.20;63.10
67557;DHT22;54387;53.526;49.300;2022-10-16T16:30:41;6.20;63.10
67557;DHT22;54387;53.526;49.300;2022-10-16T16:33:13;6.20;63.10
67557;DHT22;54387;53.526;49.300;2022-10-16T16:35:44;6.30;63.20
67557;DHT22;54387;53.526;49.300;2022-10-16T16:38:16;6.30;63.10
67557;DHT22;54387;53.526;49.300;2022-10-16T16:40:47;6.30;63.10
67557;DHT22;54387;53.526;49.300;2022-10-16T16:43:22;6.40;63.10
67557;DHT22;54387;53.526;49.300;2022-10-16T16:45:54;6.30;63.10
67557;DHT22;54387;53.526;49.300;2022-10-16T16:48:27;6.30;63.20
67557;DHT22;54387;53.526;49.300;2022-10-16T16:51:05;6.40;63.20
67557;DHT22;54387;53.526;49.300;2022-10-16T16:53:36;6.40;63.30
67557;DHT22;54387;53.526;49.300;2022-10-16T16:56:08;6.40;63.20
67557;DHT22;54387;53.526;49.300;2022-10-16T16:58:40;6.50;63.30
67557;DHT22;54387;53.526;49.300;2022-10-16T17:01:12;6.50;63.30
67557;DHT22;54387;53.526;49.300;2022-10-16T17:03:44;6.50;63.30
67557;DHT22;54387;53.526;49.300;2022-10-16T17:06:18;6.50;63.20
67557;DHT22;54387;53.526;49.300;2022-10-16T17:08:50;6.60;63.20
67557;DHT22;54387;53.526;49.300;2022-10-16T17:11:25;6.60;63.20
67557;DHT22;54387;53.526;49.300;2022-10-16T17:13:59;6.60;63.20
67557;DHT22;54387;53.526;49.300;2022-10-16T17:16:33;6.60;63.30
67557;DHT22;54387;53.526;49.300;2022-10-16T17:19:09;6.60;63.30
67557;DHT22;54387;53.526;49.300;2022-10-16T17:21:42;6.60;63.30
67557;DHT22;54387;53.526;49.300;2022-10-16T17:24:13;6.60;63.30
67557;DHT22;54387;53.526;49.300;2022-10-16T17:26:45;6.60;63.30
67557;DHT22;54387;53.526;49.300;2022-10-16T17:29:19;6.50;63.30
67557;DHT22;54387;53.526;49.300;2022-10-16T17:31:50;6.50;63.30
67557;DHT22;54387;53.526;49.300;2022-10-16T17:34:22;6.40;63.40
67557;DHT22;54387;53.526;49.300;2022-10-16T17:36:53;6.30;63.40
67557;DHT22;54387;53.526;49.300;2022-10-16T17:39:25;6.30;63.50
67557;DHT22;54387;53.526;49.300;2022-10-16T17:41:56;6.20;63.60
67557;DHT22;54387;53.526;49.300;2022-10-16T17:44:28;6.10;63.70
67557;DHT22;54387;53.526;49.300;2022-10-16T17:46:59;6.00;63.80
67557;DHT22;54387;53.526;49.300;2022-10-16T17:49:31;5.90;63.90
67557;DHT22;54387;53.526;49.300;2022-10-16T17:52:03;5.90;64.00
67557;DHT22;54387;53.526;49.300;2022-10-16T17:54:34;5.80;64.20
67557;DHT22;54387;53.526;49.300;2022-10-16T17:57:06;5.70;64.20
67557;DHT22;54387;53.526;49.300;2022-10-16T17:59:37;5.70;64.30
67557;DHT22;54387;53.526;49.300;2022-10-16T18:02:10;5.60;64.40
67557;DHT22;54387;53.526;49.300;2022-10-16T18:04:41;5.50;64.50
67557;DHT22;54387;53.526;49.300;2022-10-16T18:07:13;5.50;64.70
67557;DHT22;54387;53.526;49.300;2022-10-16T18:09:44;5.50;64.70